createdAt,value
2022-08-26T00:01:38.386Z,99980.16
2022-08-26T00:04:05.642Z,99985.91
2022-08-26T00:06:33.037Z,99981.50
2022-08-26T00:09:00.140Z,99983.34
2022-08-26T00:11:27.350Z,99985.19
2022-08-26T00:13:57.568Z,99977.94
2022-08-26T00:16:27.133Z,99987.75
2022-08-26T00:18:54.324Z,99985.31
2022-08-26T00:21:21.289Z,99985.31
2022-08-26T00:23:48.649Z,99977.69
2022-08-26T00:26:15.631Z,99976.16
2022-08-26T00:28:42.736Z,99978.31
2022-08-26T00:31:11.055Z,99976.16
2022-08-26T00:33:39.893Z,99981.00
2022-08-26T00:36:07.558Z,99978.16
2022-08-26T00:38:37.805Z,99983.53
2022-08-26T00:41:05.541Z,99987.84
2022-08-26T00:43:46.272Z,99996.97
2022-08-26T00:46:21.697Z,99992.53
2022-08-26T00:48:52.984Z,99988.78
2022-08-26T00:51:29.749Z,99989.41
2022-08-26T00:54:07.705Z,99995.63
2022-08-26T00:56:52.943Z,99986.16
2022-08-26T00:59:20.793Z,99992.94
2022-08-26T01:01:47.986Z,99987.72
2022-08-26T01:04:21.300Z,99990.50
2022-08-26T01:06:50.599Z,99984.88
2022-08-26T01:09:19.343Z,99988.78
2022-08-26T01:11:49.149Z,99983.69
2022-08-26T01:14:17.072Z,99985.84
2022-08-26T01:16:48.104Z,99983.47
2022-08-26T01:19:23.984Z,99984.34
2022-08-26T01:21:59.193Z,99980.03
2022-08-26T01:24:28.376Z,99977.00
2022-08-26T01:27:03.470Z,99980.53
2022-08-26T01:29:33.668Z,99982.66
2022-08-26T01:32:00.680Z,99977.22
2022-08-26T01:34:35.177Z,99985.06
2022-08-26T01:37:03.901Z,99985.50
2022-08-26T01:39:33.313Z,99981.41
2022-08-26T01:42:03.050Z,99983.38
2022-08-26T01:44:36.301Z,99980.09
2022-08-26T01:47:05.036Z,99982.97
2022-08-26T01:49:35.845Z,99982.44
2022-08-26T01:52:04.945Z,99982.59
2022-08-26T01:54:33.661Z,99979.28
2022-08-26T01:57:01.723Z,99988.97
2022-08-26T01:59:29.961Z,99986.50
2022-08-26T02:01:57.079Z,99990.06
2022-08-26T02:04:26.658Z,99983.75
2022-08-26T02:06:54.502Z,99991.75
2022-08-26T02:09:22.461Z,99987.22
2022-08-26T02:11:51.200Z,99988.09
2022-08-26T02:14:22.826Z,99984.31
2022-08-26T02:16:53.458Z,99991.44
2022-08-26T02:19:24.071Z,99993.38
2022-08-26T02:21:53.131Z,99993.47
2022-08-26T02:24:27.423Z,99982.16
2022-08-26T02:26:56.213Z,99986.75
2022-08-26T02:29:25.065Z,99983.31
2022-08-26T02:31:53.105Z,99986.97
2022-08-26T02:34:23.447Z,99994.06
2022-08-26T02:36:50.792Z,99991.56
2022-08-26T02:39:22.340Z,99988.03
2022-08-26T02:41:49.408Z,99985.38
2022-08-26T02:44:16.187Z,99983.66
2022-08-26T02:46:47.038Z,99991.50
2022-08-26T02:49:15.606Z,99994.97
2022-08-26T02:51:43.864Z,99994.88
2022-08-26T02:54:10.689Z,99989.47
2022-08-26T02:56:37.584Z,99992.91
2022-08-26T02:59:04.594Z,99991.94
2022-08-26T03:01:34.778Z,99986.63
2022-08-26T03:04:03.551Z,99997.16
2022-08-26T03:06:30.920Z,99999.00
2022-08-26T03:08:58.378Z,100005.25
2022-08-26T03:11:27.607Z,100004.25
2022-08-26T03:13:59.037Z,100000.69
2022-08-26T03:16:25.882Z,100007.44
2022-08-26T03:19:00.733Z,100003.16
2022-08-26T03:21:27.514Z,100008.53
2022-08-26T03:23:54.356Z,100005.94
2022-08-26T03:26:26.301Z,100004.25
2022-08-26T03:29:12.152Z,100000.59
2022-08-26T03:31:39.153Z,99994.34
2022-08-26T03:34:06.905Z,100002.97
2022-08-26T03:36:33.753Z,99998.50
2022-08-26T03:39:02.563Z,100000.34
2022-08-26T03:41:29.786Z,100000.34
2022-08-26T03:44:01.056Z,100004.69
2022-08-26T03:46:28.813Z,100006.41
2022-08-26T03:48:55.736Z,100008.19
2022-08-26T03:51:22.573Z,99997.66
2022-08-26T03:53:51.124Z,100000.06
2022-08-26T03:56:18.298Z,100007.75
2022-08-26T03:58:45.920Z,100002.97
2022-08-26T04:01:16.235Z,100009.78
2022-08-26T04:04:00.265Z,100004.53
2022-08-26T04:06:33.647Z,100012.56
2022-08-26T04:09:04.304Z,100014.59
2022-08-26T04:11:34.176Z,100013.19
2022-08-26T04:14:06.553Z,100012.53
2022-08-26T04:16:34.902Z,100010.28
2022-08-26T04:19:02.006Z,100006.16
2022-08-26T04:21:28.943Z,100018.28
2022-08-26T04:23:56.500Z,100009.44
2022-08-26T04:26:25.759Z,100018.00
2022-08-26T04:28:54.859Z,100019.66
2022-08-26T04:31:22.453Z,100017.59
2022-08-26T04:33:50.453Z,100021.00
2022-08-26T04:36:20.147Z,100017.31
2022-08-26T04:38:47.678Z,100012.81
2022-08-26T04:41:15.348Z,100016.13
2022-08-26T04:43:44.598Z,100012.44
2022-08-26T04:46:13.889Z,100024.41
2022-08-26T04:48:41.545Z,100016.19
2022-08-26T04:51:09.944Z,100009.69
2022-08-26T04:53:37.768Z,100014.56
2022-08-26T04:56:04.943Z,100008.84
2022-08-26T04:58:32.233Z,100017.88
2022-08-26T05:00:59.053Z,100001.28
2022-08-26T05:03:30.298Z,100015.63
2022-08-26T05:05:58.550Z,100012.38
2022-08-26T05:08:26.066Z,99997.44
2022-08-26T05:10:56.405Z,100006.47
2022-08-26T05:13:26.737Z,100003.19
2022-08-26T05:15:54.377Z,100002.50
2022-08-26T05:18:24.106Z,99994.84
2022-08-26T05:20:53.871Z,100002.97
2022-08-26T05:23:23.027Z,99986.06
2022-08-26T05:25:55.764Z,99972.91
2022-08-26T05:28:26.342Z,99973.78
2022-08-26T05:30:53.336Z,99944.47
2022-08-26T05:33:20.521Z,99949.63
2022-08-26T05:35:47.764Z,99967.03
2022-08-26T05:38:19.086Z,99969.72
2022-08-26T05:40:49.275Z,99971.56
2022-08-26T05:43:20.573Z,99952.34
2022-08-26T05:45:49.847Z,99926.69
2022-08-26T05:48:22.877Z,99922.41
2022-08-26T05:50:53.496Z,99899.47
2022-08-26T05:53:22.644Z,99961.84
2022-08-26T05:55:53.315Z,99974.81
2022-08-26T05:58:22.501Z,99987.16
2022-08-26T06:01:01.289Z,99976.84
2022-08-26T06:03:28.959Z,99967.53
2022-08-26T06:05:56.779Z,99932.41
2022-08-26T06:08:24.434Z,99947.78
2022-08-26T06:10:55.003Z,99973.00
2022-08-26T06:13:26.784Z,99959.50
2022-08-26T06:15:55.136Z,99946.97
2022-08-26T06:18:30.722Z,99943.91
2022-08-26T06:20:58.357Z,99911.84
2022-08-26T06:23:45.764Z,99904.38
2022-08-26T06:26:15.684Z,99892.53
2022-08-26T06:28:45.529Z,99889.44
2022-08-26T06:31:13.585Z,99775.38
2022-08-26T06:33:40.445Z,99766.53
2022-08-26T06:36:07.978Z,99709.09
2022-08-26T06:38:34.938Z,99656.22
2022-08-26T06:41:03.474Z,99653.59
2022-08-26T06:43:30.281Z,99632.84
2022-08-26T06:46:12.403Z,99663.16
2022-08-26T06:48:39.919Z,99690.47
2022-08-26T06:51:13.121Z,99698.03
2022-08-26T06:53:41.413Z,99724.44
2022-08-26T06:56:13.686Z,99699.28
2022-08-26T06:58:41.358Z,99673.19
2022-08-26T07:01:20.826Z,99660.16
2022-08-26T07:03:49.269Z,99641.88
2022-08-26T07:06:20.849Z,99632.59
2022-08-26T07:08:49.223Z,99622.44
2022-08-26T07:11:16.273Z,99629.00
2022-08-26T07:13:43.620Z,99633.88
2022-08-26T07:16:13.591Z,99655.53
2022-08-26T07:18:42.272Z,99672.78
2022-08-26T07:21:14.447Z,99643.63
2022-08-26T07:23:41.635Z,99554.25
2022-08-26T07:26:12.123Z,99511.84
2022-08-26T07:28:39.439Z,99483.00
2022-08-26T07:31:11.286Z,99488.94
2022-08-26T07:33:39.509Z,99475.25
2022-08-26T07:36:09.111Z,99492.19
2022-08-26T07:38:38.174Z,99457.03
2022-08-26T07:41:06.076Z,99450.25
2022-08-26T07:43:36.913Z,99432.88
2022-08-26T07:46:07.623Z,99405.84
2022-08-26T07:48:35.601Z,99404.59
2022-08-26T07:51:03.773Z,99409.69
2022-08-26T07:53:30.682Z,99389.06
2022-08-26T07:55:59.121Z,99405.66
2022-08-26T07:58:26.038Z,99427.56
2022-08-26T08:00:53.175Z,99444.03
2022-08-26T08:03:21.142Z,99451.81
2022-08-26T08:05:49.154Z,99465.13
2022-08-26T08:08:26.732Z,99436.50
2022-08-26T08:10:56.494Z,99444.97
2022-08-26T08:13:24.369Z,99447.22
2022-08-26T08:15:51.474Z,99468.19
2022-08-26T08:18:20.612Z,99467.44
2022-08-26T08:21:04.630Z,99471.88
2022-08-26T08:23:35.519Z,99460.97
2022-08-26T08:26:08.337Z,99424.50
2022-08-26T08:28:36.752Z,99422.53
2022-08-26T08:31:03.881Z,99407.78
2022-08-26T08:33:31.925Z,99390.75
2022-08-26T08:35:59.911Z,99390.50
2022-08-26T08:38:27.961Z,99357.31
2022-08-26T08:40:54.830Z,99345.97
2022-08-26T08:43:24.708Z,99355.84
2022-08-26T08:45:57.922Z,99347.53
2022-08-26T08:48:30.339Z,99324.06
2022-08-26T08:51:25.309Z,99329.84
2022-08-26T08:53:55.038Z,99342.19
2022-08-26T08:56:35.264Z,99347.47
2022-08-26T08:59:26.553Z,99330.16
2022-08-26T09:01:56.671Z,99316.94
2022-08-26T09:05:00.861Z,99322.88
2022-08-26T09:07:42.441Z,99317.69
2022-08-26T09:10:54.386Z,99296.28
2022-08-26T09:13:25.152Z,99289.84
2022-08-26T09:16:11.701Z,99297.53
2022-08-26T09:19:00.205Z,99294.69
2022-08-26T09:21:28.099Z,99281.31
2022-08-26T09:23:56.610Z,99277.38
2022-08-26T09:26:50.185Z,99263.41
2022-08-26T09:29:26.602Z,99246.81
2022-08-26T09:32:16.335Z,99216.34
2022-08-26T09:35:07.561Z,99207.03
2022-08-26T09:37:35.587Z,99202.53
2022-08-26T09:40:13.374Z,99182.81
2022-08-26T09:42:40.213Z,99196.59
2022-08-26T09:45:10.564Z,99191.81
2022-08-26T09:47:54.351Z,99167.97
2022-08-26T09:50:53.480Z,99212.78
2022-08-26T09:53:56.969Z,99238.44
2022-08-26T09:56:23.825Z,99215.50
2022-08-26T09:58:53.072Z,99228.81
2022-08-26T10:01:26.781Z,99180.19
2022-08-26T10:04:26.792Z,99166.75
2022-08-26T10:07:07.511Z,99118.22
2022-08-26T10:09:39.010Z,99101.75
2022-08-26T10:12:16.001Z,99089.81
2022-08-26T10:14:50.204Z,99058.19
2022-08-26T10:17:30.819Z,99053.06
2022-08-26T10:20:06.412Z,99043.09
2022-08-26T10:22:59.448Z,99020.44
2022-08-26T10:25:33.318Z,98991.91
2022-08-26T10:28:30.562Z,98968.97
2022-08-26T10:31:23.045Z,98948.81
2022-08-26T10:34:00.059Z,98928.00
2022-08-26T10:37:14.681Z,98911.34
2022-08-26T10:39:46.037Z,98903.94
2022-08-26T10:42:39.043Z,98776.31
2022-08-26T10:45:16.724Z,98684.75
2022-08-26T10:48:01.277Z,98662.81
2022-08-26T10:50:32.938Z,98636.31
2022-08-26T10:53:13.307Z,98650.16
2022-08-26T10:55:48.761Z,98638.69
2022-08-26T10:58:52.681Z,98567.56
2022-08-26T11:01:43.797Z,98546.41
2022-08-26T11:04:17.141Z,98582.16
2022-08-26T11:06:47.028Z,98578.00
2022-08-26T11:09:33.437Z,98619.00
2022-08-26T11:12:05.148Z,98604.41
2022-08-26T11:14:42.005Z,98602.56
2022-08-26T11:17:46.945Z,98638.63
2022-08-26T11:20:23.802Z,98625.00
2022-08-26T11:22:51.968Z,98618.56
2022-08-26T11:25:30.923Z,98620.03
2022-08-26T11:28:00.622Z,98581.66
2022-08-26T11:30:41.085Z,98565.47
2022-08-26T11:33:08.550Z,98564.19
2022-08-26T11:35:37.535Z,98575.09
2022-08-26T11:38:15.645Z,98554.69
2022-08-26T11:40:42.672Z,98556.72
2022-08-26T11:43:23.183Z,98531.91
2022-08-26T11:46:07.339Z,98523.03
2022-08-26T11:48:41.477Z,98492.81
2022-08-26T11:51:13.470Z,98482.72
2022-08-26T11:53:43.098Z,98469.69
2022-08-26T11:56:20.356Z,98517.06
2022-08-26T11:58:49.085Z,98553.59
2022-08-26T12:01:33.231Z,98617.63
2022-08-26T12:04:03.126Z,98650.63
2022-08-26T12:06:37.713Z,98697.78
2022-08-26T12:09:20.340Z,98740.06
2022-08-26T12:11:47.128Z,98762.47
2022-08-26T12:14:20.777Z,98798.88
2022-08-26T12:16:48.034Z,98835.63
2022-08-26T12:19:33.453Z,98812.44
2022-08-26T12:22:21.949Z,98787.47
2022-08-26T12:25:05.397Z,98767.91
2022-08-26T12:27:35.292Z,98727.16
2022-08-26T12:30:06.791Z,98706.25
2022-08-26T12:32:37.865Z,98666.22
2022-08-26T12:35:24.499Z,98606.69
2022-08-26T12:37:54.239Z,98589.56
2022-08-26T12:40:43.307Z,98604.59
2022-08-26T12:43:13.593Z,98631.78
2022-08-26T12:45:44.204Z,98664.69
2022-08-26T12:48:25.901Z,98664.88
2022-08-26T12:50:53.320Z,98639.78
2022-08-26T12:53:34.725Z,98658.81
2022-08-26T12:56:20.141Z,98676.19
2022-08-26T12:59:19.365Z,98710.88
2022-08-26T13:01:47.007Z,98729.75
2022-08-26T13:04:42.876Z,98721.25
2022-08-26T13:07:14.864Z,98726.00
2022-08-26T13:09:41.737Z,98723.91
2022-08-26T13:12:11.693Z,98705.09
2022-08-26T13:14:38.649Z,98658.88
2022-08-26T13:17:05.532Z,98601.91
2022-08-26T13:19:32.478Z,98604.22
2022-08-26T13:22:00.828Z,98606.28
2022-08-26T13:24:42.313Z,98597.63
2022-08-26T13:27:11.608Z,98549.63
2022-08-26T13:29:38.680Z,98554.09
2022-08-26T13:32:07.908Z,98524.81
2022-08-26T13:34:37.232Z,98525.59
2022-08-26T13:37:04.887Z,98542.66
2022-08-26T13:39:32.161Z,98536.34
2022-08-26T13:42:00.231Z,98550.72
2022-08-26T13:44:27.489Z,98555.09
2022-08-26T13:46:54.822Z,98541.00
2022-08-26T13:49:22.315Z,98516.44
2022-08-26T13:51:49.087Z,98531.00
2022-08-26T13:54:16.003Z,98522.63
2022-08-26T13:56:43.047Z,98547.31
2022-08-26T13:59:10.886Z,98617.72
2022-08-26T14:01:39.894Z,98654.19
2022-08-26T14:04:06.968Z,98678.56
2022-08-26T14:06:33.841Z,98679.69
2022-08-26T14:09:00.812Z,98684.50
2022-08-26T14:11:27.715Z,98688.50
2022-08-26T14:13:54.496Z,98681.44
2022-08-26T14:16:25.894Z,98685.06
2022-08-26T14:18:54.057Z,98693.69
2022-08-26T14:21:21.378Z,98697.50
2022-08-26T14:23:48.379Z,98696.19
2022-08-26T14:26:27.940Z,98708.63
2022-08-26T14:28:57.087Z,98715.06
2022-08-26T14:31:24.274Z,98701.97
2022-08-26T14:33:51.235Z,98718.00
2022-08-26T14:36:32.444Z,98721.06
2022-08-26T14:39:06.893Z,98744.53
2022-08-26T14:41:44.963Z,98742.69
2022-08-26T14:44:14.905Z,98752.78
2022-08-26T14:46:45.877Z,98764.25
2022-08-26T14:49:13.841Z,98745.16
2022-08-26T14:51:41.231Z,98761.47
2022-08-26T14:54:12.507Z,98766.03
2022-08-26T14:57:01.644Z,98787.88
2022-08-26T14:59:31.904Z,98789.53
2022-08-26T15:02:00.515Z,98793.69
2022-08-26T15:04:28.678Z,98824.50
2022-08-26T15:06:57.481Z,98829.06
2022-08-26T15:09:25.184Z,98841.91
2022-08-26T15:11:53.263Z,98854.59
2022-08-26T15:14:20.821Z,98879.69
2022-08-26T15:16:53.908Z,98909.81
2022-08-26T15:19:21.276Z,98926.91
2022-08-26T15:21:48.808Z,98946.56
2022-08-26T15:24:18.750Z,98964.34
2022-08-26T15:26:46.857Z,98984.25
2022-08-26T15:29:14.087Z,99007.53
2022-08-26T15:31:41.206Z,99015.44
2022-08-26T15:34:14.594Z,99028.63
2022-08-26T15:36:44.952Z,99042.03
2022-08-26T15:39:12.151Z,99053.25
2022-08-26T15:41:39.565Z,99057.66
2022-08-26T15:44:07.844Z,99057.75
2022-08-26T15:46:35.613Z,99072.69
2022-08-26T15:49:04.668Z,99084.53
2022-08-26T15:51:45.736Z,99103.84
2022-08-26T15:54:16.744Z,99115.69
2022-08-26T15:56:44.257Z,99117.25
2022-08-26T15:59:11.833Z,99128.50
2022-08-26T16:01:39.773Z,99156.34
2022-08-26T16:04:07.361Z,99165.19
2022-08-26T16:06:37.908Z,99178.00
2022-08-26T16:09:06.616Z,99192.47
2022-08-26T16:11:34.012Z,99200.19
2022-08-26T16:14:00.815Z,99214.63
2022-08-26T16:16:27.806Z,99231.69
2022-08-26T16:18:55.184Z,99254.81
2022-08-26T16:21:27.874Z,99270.91
2022-08-26T16:23:56.637Z,99282.06
2022-08-26T16:26:32.536Z,99307.16
2022-08-26T16:29:01.873Z,99314.00
2022-08-26T16:31:28.934Z,99316.25
2022-08-26T16:33:55.954Z,99315.66
2022-08-26T16:36:22.830Z,99344.88
2022-08-26T16:38:55.280Z,99362.59
2022-08-26T16:41:27.925Z,99368.38
2022-08-26T16:43:55.479Z,99392.00
2022-08-26T16:46:25.753Z,99417.66
2022-08-26T16:48:54.209Z,99423.72
2022-08-26T16:51:23.601Z,99431.44
2022-08-26T16:53:51.673Z,99455.19
2022-08-26T16:56:21.977Z,99474.28
2022-08-26T16:58:49.328Z,99490.13
2022-08-26T17:01:18.079Z,99505.03
2022-08-26T17:03:44.926Z,99526.97
2022-08-26T17:06:12.105Z,99542.31
2022-08-26T17:08:40.669Z,99566.38
2022-08-26T17:11:08.467Z,99579.78
2022-08-26T17:13:36.566Z,99597.41
2022-08-26T17:16:08.742Z,99627.91
2022-08-26T17:18:36.615Z,99638.84
2022-08-26T17:21:07.043Z,99660.69
2022-08-26T17:23:34.763Z,99683.72
2022-08-26T17:26:01.738Z,99688.66
2022-08-26T17:28:28.698Z,99701.38
2022-08-26T17:30:57.534Z,99719.63
2022-08-26T17:33:25.502Z,99735.94
2022-08-26T17:35:53.112Z,99739.75
2022-08-26T17:38:21.156Z,99759.34
2022-08-26T17:40:48.869Z,99778.97
2022-08-26T17:43:16.000Z,99784.28
2022-08-26T17:45:43.386Z,99793.00
2022-08-26T17:48:13.400Z,99809.09
2022-08-26T17:50:42.619Z,99821.81
2022-08-26T17:53:12.708Z,99821.81
2022-08-26T17:55:45.765Z,99825.41
2022-08-26T17:58:14.794Z,99842.53
2022-08-26T18:00:47.409Z,99857.03
2022-08-26T18:03:14.523Z,99862.03
2022-08-26T18:05:42.723Z,99872.13
2022-08-26T18:08:10.259Z,99882.19
2022-08-26T18:10:37.374Z,99896.94
2022-08-26T18:13:04.773Z,99899.38
2022-08-26T18:15:31.949Z,99908.06
2022-08-26T18:17:59.046Z,99910.53
2022-08-26T18:20:25.877Z,99928.72
2022-08-26T18:22:54.162Z,99953.94
2022-08-26T18:25:21.092Z,99964.06
2022-08-26T18:27:47.917Z,99967.09
2022-08-26T18:30:18.418Z,99984.03
2022-08-26T18:32:45.285Z,99976.25
2022-08-26T18:35:12.777Z,99982.66
2022-08-26T18:37:40.255Z,100000.59
2022-08-26T18:40:09.717Z,100029.88
2022-08-26T18:42:38.220Z,100032.16
2022-08-26T18:45:09.458Z,100049.03
2022-08-26T18:47:36.640Z,100057.41
2022-08-26T18:50:04.896Z,100072.56
2022-08-26T18:52:32.659Z,100083.28
2022-08-26T18:54:59.687Z,100097.63
2022-08-26T18:57:26.614Z,100104.94
2022-08-26T18:59:53.406Z,100112.88
2022-08-26T19:02:20.383Z,100115.69
2022-08-26T19:04:47.334Z,100130.00
2022-08-26T19:07:14.597Z,100142.59
2022-08-26T19:09:41.401Z,100149.75
2022-08-26T19:12:08.776Z,100160.66
2022-08-26T19:14:36.303Z,100173.25
2022-08-26T19:17:04.061Z,100182.25
2022-08-26T19:19:31.761Z,100190.34
2022-08-26T19:21:58.669Z,100203.78
2022-08-26T19:24:26.026Z,100209.56
2022-08-26T19:26:58.415Z,100225.88
2022-08-26T19:29:28.354Z,100231.44
2022-08-26T19:31:55.405Z,100241.28
2022-08-26T19:34:22.883Z,100238.84
2022-08-26T19:36:51.820Z,100261.06
2022-08-26T19:39:19.279Z,100277.81
2022-08-26T19:41:46.834Z,100290.97
2022-08-26T19:44:36.945Z,100304.41
2022-08-26T19:47:04.520Z,100302.25
2022-08-26T19:49:31.939Z,100302.16
2022-08-26T19:51:58.824Z,100310.25
2022-08-26T19:54:25.675Z,100315.66
2022-08-26T19:56:52.639Z,100330.66
2022-08-26T19:59:20.171Z,100341.34
2022-08-26T20:01:47.346Z,100345.06
2022-08-26T20:04:27.966Z,100357.66
2022-08-26T20:06:55.656Z,100362.38
2022-08-26T20:09:25.740Z,100374.97
2022-08-26T20:11:52.541Z,100374.34
2022-08-26T20:14:23.655Z,100380.81
2022-08-26T20:16:50.533Z,100386.31
2022-08-26T20:19:37.685Z,100401.47
2022-08-26T20:22:05.232Z,100400.84
2022-08-26T20:24:32.710Z,100399.25
2022-08-26T20:27:03.311Z,100402.00
2022-08-26T20:29:33.193Z,100401.22
2022-08-26T20:32:00.693Z,100392.38
2022-08-26T20:34:28.149Z,100382.81
2022-08-26T20:36:55.073Z,100378.47
2022-08-26T20:39:22.177Z,100371.63
2022-08-26T20:41:49.640Z,100362.13
2022-08-26T20:44:17.695Z,100341.06
2022-08-26T20:46:44.958Z,100341.91
2022-08-26T20:49:13.497Z,100305.69
2022-08-26T20:51:42.838Z,100284.53
2022-08-26T20:54:12.074Z,100272.91
2022-08-26T20:56:39.518Z,100256.84
2022-08-26T20:59:07.514Z,100269.09
2022-08-26T21:01:36.779Z,100272.69
2022-08-26T21:04:12.720Z,100271.22
2022-08-26T21:06:40.576Z,100264.47
2022-08-26T21:09:14.099Z,100246.06
2022-08-26T21:11:43.444Z,100238.31
2022-08-26T21:14:16.047Z,100223.97
2022-08-26T21:16:45.637Z,100219.72
2022-08-26T21:19:15.169Z,100195.88
2022-08-26T21:21:46.939Z,100195.75
2022-08-26T21:24:14.360Z,100172.63
2022-08-26T21:26:41.563Z,100175.00
2022-08-26T21:29:09.874Z,100171.56
2022-08-26T21:31:42.270Z,100169.16
2022-08-26T21:34:12.871Z,100152.59
2022-08-26T21:36:39.751Z,100142.03
2022-08-26T21:39:11.309Z,100133.19
2022-08-26T21:41:39.739Z,100123.75
2022-08-26T21:44:06.765Z,100117.03
2022-08-26T21:46:36.399Z,100100.34
2022-08-26T21:49:07.495Z,100102.19
2022-08-26T21:51:37.408Z,100098.91
2022-08-26T21:54:10.834Z,100085.16
2022-08-26T21:56:47.174Z,100065.06
2022-08-26T21:59:16.385Z,100056.28
2022-08-26T22:01:43.587Z,100045.72
2022-08-26T22:04:10.754Z,100043.25
2022-08-26T22:06:47.007Z,100030.56
2022-08-26T22:09:17.079Z,100021.22
2022-08-26T22:11:44.609Z,100010.91
2022-08-26T22:14:11.974Z,100003.13
2022-08-26T22:16:39.184Z,100015.63
2022-08-26T22:19:06.529Z,99983.75
2022-08-26T22:21:35.701Z,99977.66
2022-08-26T22:24:03.728Z,99934.00
2022-08-26T22:26:32.773Z,99951.78
2022-08-26T22:29:01.526Z,99979.78
2022-08-26T22:31:38.352Z,99996.91
2022-08-26T22:34:08.881Z,99987.59
2022-08-26T22:36:43.154Z,100002.94
2022-08-26T22:39:13.411Z,100010.28
2022-08-26T22:41:42.117Z,99996.59
2022-08-26T22:44:10.395Z,99985.16
2022-08-26T22:46:38.689Z,99945.31
2022-08-26T22:49:07.768Z,99990.31
2022-08-26T22:51:34.712Z,99983.59
2022-08-26T22:54:01.747Z,99987.38
2022-08-26T22:56:28.567Z,99932.44
2022-08-26T22:58:55.388Z,99976.50
2022-08-26T23:01:22.324Z,99961.81
2022-08-26T23:03:49.384Z,99961.19
2022-08-26T23:06:16.629Z,99958.09
2022-08-26T23:08:46.342Z,99909.88
2022-08-26T23:11:15.040Z,99954.97
2022-08-26T23:13:42.451Z,99886.91
2022-08-26T23:16:11.986Z,99904.06
2022-08-26T23:18:40.913Z,99896.13
2022-08-26T23:21:08.281Z,99883.97
2022-08-26T23:23:35.457Z,99835.28
2022-08-26T23:26:06.159Z,99802.31
2022-08-26T23:28:33.525Z,99798.31
2022-08-26T23:31:00.500Z,99792.03
2022-08-26T23:33:47.836Z,99833.75
2022-08-26T23:36:18.115Z,99840.44
2022-08-26T23:38:52.401Z,99870.38
2022-08-26T23:41:22.283Z,99920.84
2022-08-26T23:43:49.636Z,99980.06
2022-08-26T23:46:16.545Z,100008.88
2022-08-26T23:48:43.764Z,99979.19
2022-08-26T23:51:29.951Z,100002.31
2022-08-26T23:53:57.998Z,100010.69
2022-08-26T23:56:25.177Z,100005.91
2022-08-26T23:58:53.893Z,99976.38
